createdAt,value
2023-04-05T00:01:56.338Z,7.63
2023-04-05T00:04:23.786Z,8.13
2023-04-05T00:06:52.599Z,8.40
2023-04-05T00:09:23.184Z,9.30
2023-04-05T00:11:49.657Z,10.02
2023-04-05T00:14:16.262Z,9.88
2023-04-05T00:16:43.005Z,8.83
2023-04-05T00:19:12.315Z,9.48
2023-04-05T00:21:39.871Z,10.40
2023-04-05T00:24:07.939Z,8.52
2023-04-05T00:26:36.269Z,8.90
2023-04-05T00:29:02.753Z,9.00
2023-04-05T00:31:30.636Z,9.55
2023-04-05T00:33:57.737Z,9.95
2023-04-05T00:36:24.370Z,10.00
2023-04-05T00:38:50.875Z,10.98
2023-04-05T00:41:17.632Z,9.70
2023-04-05T00:43:44.181Z,8.55
2023-04-05T00:46:11.073Z,8.63
2023-04-05T00:48:38.371Z,10.95
2023-04-05T00:51:05.054Z,9.50
2023-04-05T00:53:32.167Z,10.67
2023-04-05T00:55:58.836Z,11.43
2023-04-05T00:58:25.538Z,9.35
2023-04-05T01:01:13.751Z,11.25
2023-04-05T01:03:49.149Z,9.65
2023-04-05T01:07:09.249Z,9.37
2023-04-05T01:09:52.828Z,7.78
2023-04-05T01:12:22.651Z,10.95
2023-04-05T01:14:51.897Z,9.50
2023-04-05T01:17:23.264Z,10.70
2023-04-05T01:19:58.756Z,11.00
2023-04-05T01:22:40.629Z,10.40
2023-04-05T01:25:19.461Z,9.27
2023-04-05T01:27:59.108Z,11.18
2023-04-05T01:30:35.044Z,9.27
2023-04-05T01:33:21.331Z,8.47
2023-04-05T01:35:52.624Z,11.75
2023-04-05T01:38:25.073Z,9.68
2023-04-05T01:40:52.796Z,10.15
2023-04-05T01:43:19.342Z,10.23
2023-04-05T01:45:46.667Z,9.20
2023-04-05T01:48:14.637Z,13.52
2023-04-05T01:50:41.581Z,10.13
2023-04-05T01:53:08.626Z,10.32
2023-04-05T01:55:35.294Z,7.88
2023-04-05T01:58:02.110Z,8.87
2023-04-05T02:00:28.739Z,9.90
2023-04-05T02:02:55.433Z,10.00
2023-04-05T02:05:22.040Z,9.18
2023-04-05T02:07:48.576Z,8.50
2023-04-05T02:10:15.918Z,12.63
2023-04-05T02:12:42.848Z,8.57
2023-04-05T02:15:09.685Z,9.18
2023-04-05T02:17:39.416Z,11.48
2023-04-05T02:20:07.896Z,7.35
2023-04-05T02:22:34.858Z,10.07
2023-04-05T02:25:01.661Z,9.18
2023-04-05T02:27:28.153Z,8.48
2023-04-05T02:29:57.289Z,10.85
2023-04-05T02:32:24.592Z,9.98
2023-04-05T02:34:52.357Z,8.30
2023-04-05T02:37:20.560Z,9.73
2023-04-05T02:39:47.157Z,9.95
2023-04-05T02:42:13.655Z,9.55
2023-04-05T02:44:40.535Z,9.88
2023-04-05T02:47:07.969Z,11.50
2023-04-05T02:49:34.987Z,11.20
2023-04-05T02:52:05.549Z,10.18
2023-04-05T02:54:32.194Z,9.10
2023-04-05T02:57:02.328Z,9.90
2023-04-05T02:59:34.036Z,8.53
2023-04-05T03:02:01.384Z,10.38
2023-04-05T03:04:27.953Z,10.48
2023-04-05T03:07:02.873Z,9.77
2023-04-05T03:09:33.611Z,9.15
2023-04-05T03:12:05.476Z,11.23
2023-04-05T03:14:36.051Z,9.57
2023-04-05T03:17:03.288Z,10.52
2023-04-05T03:19:35.928Z,10.02
2023-04-05T03:22:24.488Z,11.65
2023-04-05T03:24:52.391Z,10.80
2023-04-05T03:27:19.941Z,10.02
2023-04-05T03:30:07.650Z,9.82
2023-04-05T03:32:39.180Z,10.73
2023-04-05T03:35:16.697Z,10.50
2023-04-05T03:37:46.244Z,12.00
2023-04-05T03:40:13.417Z,13.57
2023-04-05T03:42:40.005Z,11.60
2023-04-05T03:45:07.095Z,9.63
2023-04-05T03:47:33.867Z,11.52
2023-04-05T03:50:04.891Z,12.37
2023-04-05T03:52:31.673Z,10.60
2023-04-05T03:54:59.119Z,10.38
2023-04-05T03:57:30.942Z,13.10
2023-04-05T04:00:01.786Z,11.07
2023-04-05T04:02:45.982Z,11.23
2023-04-05T04:05:17.786Z,10.02
2023-04-05T04:07:47.363Z,11.75
2023-04-05T04:10:17.688Z,10.80
2023-04-05T04:12:48.020Z,11.75
2023-04-05T04:15:18.054Z,8.83
2023-04-05T04:17:59.923Z,13.20
2023-04-05T04:20:36.809Z,11.57
2023-04-05T04:23:30.500Z,11.02
2023-04-05T04:26:14.312Z,11.75
2023-04-05T04:28:53.816Z,11.80
2023-04-05T04:31:45.665Z,10.95
2023-04-05T04:34:26.711Z,10.70
2023-04-05T04:37:22.491Z,11.45
2023-04-05T04:40:18.845Z,9.88
2023-04-05T04:43:17.628Z,15.10
2023-04-05T04:46:10.987Z,15.65
2023-04-05T04:48:53.348Z,23.27
2023-04-05T04:51:37.181Z,39.88
2023-04-05T04:54:03.689Z,46.63
2023-04-05T04:56:30.243Z,41.37
2023-04-05T04:58:58.810Z,28.25
2023-04-05T05:01:26.556Z,16.50
2023-04-05T05:03:53.344Z,19.10
2023-04-05T05:06:24.422Z,16.13
2023-04-05T05:08:50.990Z,16.50
2023-04-05T05:11:17.501Z,13.95
2023-04-05T05:13:44.042Z,14.90
2023-04-05T05:16:19.004Z,17.50
2023-04-05T05:18:48.117Z,13.23
2023-04-05T05:21:14.524Z,10.70
2023-04-05T05:23:41.517Z,15.35
2023-04-05T05:26:07.994Z,11.73
2023-04-05T05:28:34.479Z,13.13
2023-04-05T05:31:01.128Z,10.65
2023-04-05T05:33:27.710Z,14.10
2023-04-05T05:35:54.271Z,16.85
2023-04-05T05:38:20.815Z,18.20
2023-04-05T05:40:47.522Z,22.38
2023-04-05T05:43:15.461Z,19.33
2023-04-05T05:45:41.873Z,15.30
2023-04-05T05:48:08.448Z,18.48
2023-04-05T05:50:34.913Z,23.08
2023-04-05T05:53:01.776Z,21.90
2023-04-05T05:55:28.636Z,23.42
2023-04-05T05:57:55.201Z,24.37
2023-04-05T06:00:22.737Z,14.75
2023-04-05T06:02:49.660Z,12.07
2023-04-05T06:05:16.224Z,18.15
2023-04-05T06:07:42.760Z,11.48
2023-04-05T06:10:09.785Z,13.33
2023-04-05T06:12:36.365Z,13.30
2023-04-05T06:15:02.952Z,12.68
2023-04-05T06:17:29.618Z,12.05
2023-04-05T06:19:56.150Z,12.57
2023-04-05T06:22:23.563Z,11.33
2023-04-05T06:24:50.154Z,12.43
2023-04-05T06:27:16.708Z,12.32
2023-04-05T06:29:43.167Z,10.23
2023-04-05T06:32:09.736Z,11.50
2023-04-05T06:34:36.434Z,11.90
2023-04-05T06:37:03.045Z,13.15
2023-04-05T06:39:29.582Z,9.43
2023-04-05T06:41:56.674Z,14.13
2023-04-05T06:44:27.544Z,10.68
2023-04-05T06:46:54.029Z,9.93
2023-04-05T06:49:20.569Z,12.93
2023-04-05T06:51:47.102Z,11.48
2023-04-05T06:54:15.276Z,14.85
2023-04-05T06:56:43.727Z,10.57
2023-04-05T06:59:10.233Z,13.90
2023-04-05T07:01:36.758Z,9.50
2023-04-05T07:04:03.519Z,12.57
2023-04-05T07:06:30.098Z,11.77
2023-04-05T07:08:56.584Z,11.23
2023-04-05T07:11:23.056Z,12.90
2023-04-05T07:13:49.583Z,12.25
2023-04-05T07:16:18.180Z,10.05
2023-04-05T07:18:44.987Z,14.07
2023-04-05T07:21:11.659Z,10.32
2023-04-05T07:23:38.566Z,11.80
2023-04-05T07:26:05.270Z,12.55
2023-04-05T07:28:35.344Z,10.73
2023-04-05T07:31:02.678Z,11.25
2023-04-05T07:33:29.187Z,11.55
2023-04-05T07:35:56.779Z,9.33
2023-04-05T07:38:23.503Z,11.68
2023-04-05T07:40:50.955Z,11.75
2023-04-05T07:43:18.709Z,10.60
2023-04-05T07:45:45.599Z,13.10
2023-04-05T07:48:12.078Z,10.63
2023-04-05T07:50:40.879Z,10.52
2023-04-05T07:53:08.234Z,10.05
2023-04-05T07:55:38.005Z,16.25
2023-04-05T07:58:04.506Z,11.25
2023-04-05T08:00:31.053Z,12.60
2023-04-05T08:03:01.474Z,12.80
2023-04-05T08:05:29.018Z,10.63
2023-04-05T08:07:57.920Z,10.13
2023-04-05T08:10:24.990Z,10.00
2023-04-05T08:12:51.509Z,9.50
2023-04-05T08:15:18.026Z,11.40
2023-04-05T08:17:44.563Z,10.77
2023-04-05T08:20:11.486Z,9.18
2023-04-05T08:22:37.976Z,10.25
2023-04-05T08:25:04.716Z,10.23
2023-04-05T08:27:31.343Z,10.02
2023-04-05T08:29:57.850Z,8.27
2023-04-05T08:32:24.361Z,10.00
2023-04-05T08:34:50.877Z,8.73
2023-04-05T08:37:17.312Z,8.73
2023-04-05T08:39:43.786Z,11.38
2023-04-05T08:42:19.068Z,12.00
2023-04-05T08:44:46.858Z,8.35
2023-04-05T08:47:18.328Z,7.88
2023-04-05T08:49:45.593Z,10.47
2023-04-05T08:52:12.291Z,9.20
2023-04-05T08:54:38.777Z,7.45
2023-04-05T08:57:06.964Z,10.00
2023-04-05T08:59:36.260Z,9.32
2023-04-05T09:02:07.111Z,9.93
2023-04-05T09:04:39.636Z,8.00
2023-04-05T09:07:08.889Z,8.07
2023-04-05T09:09:37.633Z,6.68
2023-04-05T09:12:05.195Z,9.55
2023-04-05T09:14:34.273Z,8.30
2023-04-05T09:17:04.549Z,7.63
2023-04-05T09:19:31.104Z,8.32
2023-04-05T09:21:58.843Z,7.70
2023-04-05T09:24:37.028Z,7.45
2023-04-05T09:27:05.910Z,6.73
2023-04-05T09:29:32.439Z,6.20
2023-04-05T09:32:05.616Z,9.82
2023-04-05T09:34:38.731Z,7.32
2023-04-05T09:37:21.232Z,7.68
2023-04-05T09:39:50.662Z,6.97
2023-04-05T09:42:19.282Z,7.50
2023-04-05T09:45:07.172Z,8.57
2023-04-05T09:47:39.280Z,10.00
2023-04-05T09:50:14.227Z,7.28
2023-04-05T09:52:40.785Z,9.43
2023-04-05T09:55:08.064Z,7.55
2023-04-05T09:57:37.453Z,7.00
2023-04-05T10:00:05.947Z,9.88
2023-04-05T10:02:41.289Z,9.45
2023-04-05T10:05:13.521Z,8.00
2023-04-05T10:07:43.159Z,7.47
2023-04-05T10:10:12.254Z,7.43
2023-04-05T10:12:41.368Z,7.90
2023-04-05T10:15:09.219Z,9.43
2023-04-05T10:18:10.401Z,9.33
2023-04-05T10:20:41.666Z,7.25
2023-04-05T10:23:21.396Z,9.00
2023-04-05T10:26:31.320Z,6.80
2023-04-05T10:29:06.877Z,8.52
2023-04-05T10:31:55.596Z,7.57
2023-04-05T10:34:39.654Z,7.70
2023-04-05T10:37:07.101Z,8.38
2023-04-05T10:39:46.493Z,8.52
2023-04-05T10:42:21.161Z,8.63
2023-04-05T10:44:59.913Z,9.67
2023-04-05T10:47:28.701Z,10.65
2023-04-05T10:50:00.239Z,6.85
2023-04-05T10:52:28.603Z,6.82
2023-04-05T10:54:57.270Z,8.90
2023-04-05T10:57:24.681Z,8.67
2023-04-05T10:59:52.078Z,7.15
2023-04-05T11:02:19.354Z,7.40
2023-04-05T11:04:46.203Z,7.95
2023-04-05T11:07:19.618Z,8.43
2023-04-05T11:09:51.645Z,6.50
2023-04-05T11:12:18.309Z,6.82
2023-04-05T11:14:44.817Z,7.72
2023-04-05T11:17:28.666Z,6.70
2023-04-05T11:20:03.781Z,6.30
2023-04-05T11:22:31.128Z,5.93
2023-04-05T11:25:01.868Z,6.93
2023-04-05T11:27:33.873Z,7.72
2023-04-05T11:30:01.379Z,8.63
2023-04-05T11:32:45.999Z,7.05
2023-04-05T11:35:14.925Z,6.93
2023-04-05T11:38:00.295Z,7.60
2023-04-05T11:40:29.312Z,7.65
2023-04-05T11:43:03.011Z,8.35
2023-04-05T11:45:33.668Z,7.38
2023-04-05T11:48:07.838Z,6.63
2023-04-05T11:50:36.684Z,7.40
2023-04-05T11:53:16.319Z,8.02
2023-04-05T11:55:47.075Z,7.20
2023-04-05T11:58:18.377Z,7.70
2023-04-05T12:00:46.400Z,6.23
2023-04-05T12:03:14.773Z,6.88
2023-04-05T12:05:51.920Z,7.93
2023-04-05T12:08:19.498Z,7.80
2023-04-05T12:11:02.134Z,7.57
2023-04-05T12:13:29.859Z,6.10
2023-04-05T12:16:01.509Z,8.30
2023-04-05T12:18:30.152Z,5.18
2023-04-05T12:20:56.900Z,7.55
2023-04-05T12:23:24.117Z,6.63
2023-04-05T12:25:51.675Z,6.33
2023-04-05T12:28:18.246Z,8.93
2023-04-05T12:30:52.667Z,9.63
2023-04-05T12:33:33.857Z,7.45
2023-04-05T12:36:04.906Z,7.88
2023-04-05T12:38:31.486Z,8.37
2023-04-05T12:41:02.525Z,8.77
2023-04-05T12:43:42.132Z,6.97
2023-04-05T12:46:18.347Z,7.90
2023-04-05T12:48:50.959Z,7.50
2023-04-05T12:51:17.550Z,6.37
2023-04-05T12:53:48.157Z,8.48
2023-04-05T12:56:16.087Z,7.70
2023-04-05T12:58:42.919Z,11.30
2023-04-05T13:01:10.656Z,7.47
2023-04-05T13:03:37.493Z,7.27
2023-04-05T13:06:04.080Z,8.23
2023-04-05T13:08:30.632Z,8.10
2023-04-05T13:10:58.027Z,8.70
2023-04-05T13:13:25.247Z,8.35
2023-04-05T13:15:52.277Z,7.17
2023-04-05T13:18:19.214Z,6.78
2023-04-05T13:20:45.924Z,7.95
2023-04-05T13:23:13.081Z,7.18
2023-04-05T13:25:41.491Z,6.68
2023-04-05T13:28:09.033Z,8.87
2023-04-05T13:30:35.639Z,7.40
2023-04-05T13:33:03.885Z,5.65
2023-04-05T13:35:30.645Z,7.93
2023-04-05T13:37:57.164Z,6.97
2023-04-05T13:40:24.004Z,6.47
2023-04-05T13:42:50.600Z,7.75
2023-04-05T13:45:17.178Z,6.43
2023-04-05T13:47:43.705Z,7.80
2023-04-05T13:50:10.671Z,7.47
2023-04-05T13:52:37.647Z,8.97
2023-04-05T13:55:04.570Z,8.60
2023-04-05T13:57:31.749Z,5.82
2023-04-05T13:59:58.390Z,7.85
2023-04-05T14:02:27.104Z,8.23
2023-04-05T14:04:54.361Z,7.17
2023-04-05T14:07:22.004Z,7.13
2023-04-05T14:09:48.583Z,7.80
2023-04-05T14:12:15.349Z,8.35
2023-04-05T14:14:41.855Z,6.85
2023-04-05T14:17:08.348Z,6.97
2023-04-05T14:19:34.817Z,7.50
2023-04-05T14:22:02.047Z,7.65
2023-04-05T14:24:28.658Z,7.88
2023-04-05T14:26:58.548Z,7.07
2023-04-05T14:29:25.349Z,9.97
2023-04-05T14:31:51.894Z,6.95
2023-04-05T14:34:19.758Z,7.70
2023-04-05T14:36:46.310Z,7.78
2023-04-05T14:39:12.965Z,6.15
2023-04-05T14:41:39.646Z,6.97
2023-04-05T14:44:06.271Z,6.40
2023-04-05T14:46:32.856Z,6.88
2023-04-05T14:48:59.397Z,6.22
2023-04-05T14:51:27.300Z,8.05
2023-04-05T14:53:53.842Z,7.83
2023-04-05T14:56:20.422Z,9.50
2023-04-05T14:58:46.968Z,7.25
2023-04-05T15:01:13.573Z,8.35
2023-04-05T15:03:40.482Z,7.80
2023-04-05T15:06:07.118Z,10.13
2023-04-05T15:08:33.629Z,6.97
2023-04-05T15:11:00.553Z,8.02
2023-04-05T15:13:27.145Z,8.02
2023-04-05T15:15:53.683Z,6.45
2023-04-05T15:18:20.463Z,6.40
2023-04-05T15:20:46.979Z,8.70
2023-04-05T15:23:13.477Z,6.10
2023-04-05T15:25:40.420Z,6.25
2023-04-05T15:28:07.244Z,8.02
2023-04-05T15:30:33.781Z,7.90
2023-04-05T15:33:00.646Z,7.70
2023-04-05T15:35:27.400Z,7.60
2023-04-05T15:37:54.076Z,6.55
2023-04-05T15:40:20.838Z,7.38
2023-04-05T15:42:47.256Z,5.80
2023-04-05T15:45:13.816Z,7.00
2023-04-05T15:47:40.486Z,8.38
2023-04-05T15:50:07.467Z,8.05
2023-04-05T15:52:35.321Z,8.40
2023-04-05T15:55:02.403Z,7.40
2023-04-05T15:57:28.997Z,8.73
2023-04-05T15:59:55.531Z,7.85
2023-04-05T16:02:22.010Z,7.13
2023-04-05T16:04:48.514Z,6.50
2023-04-05T16:07:14.949Z,7.30
2023-04-05T16:09:41.427Z,9.23
2023-04-05T16:12:07.998Z,10.15
2023-04-05T16:14:34.561Z,7.07
2023-04-05T16:17:01.972Z,7.85
2023-04-05T16:19:28.445Z,8.07
2023-04-05T16:21:55.868Z,6.22
2023-04-05T16:24:22.440Z,7.05
2023-04-05T16:26:48.920Z,6.45
2023-04-05T16:29:15.450Z,9.20
2023-04-05T16:31:47.011Z,7.53
2023-04-05T16:34:14.009Z,6.20
2023-04-05T16:36:41.292Z,7.97
2023-04-05T16:39:07.805Z,6.13
2023-04-05T16:41:36.198Z,7.30
2023-04-05T16:44:03.123Z,7.03
2023-04-05T16:46:32.026Z,9.05
2023-04-05T16:48:59.465Z,8.23
2023-04-05T16:51:26.169Z,8.82
2023-04-05T16:53:52.650Z,6.18
2023-04-05T16:56:19.666Z,8.23
2023-04-05T16:58:46.289Z,7.70
2023-04-05T17:01:13.056Z,8.27
2023-04-05T17:03:39.670Z,8.88
2023-04-05T17:06:06.379Z,7.40
2023-04-05T17:08:32.826Z,11.10
2023-04-05T17:10:59.407Z,7.65
2023-04-05T17:13:25.957Z,7.10
2023-04-05T17:15:52.489Z,8.02
2023-04-05T17:18:19.028Z,6.90
2023-04-05T17:20:45.490Z,9.00
2023-04-05T17:23:11.968Z,7.07
2023-04-05T17:25:38.571Z,8.20
2023-04-05T17:28:05.119Z,7.85
2023-04-05T17:30:32.820Z,9.05
2023-04-05T17:32:59.310Z,6.50
2023-04-05T17:35:25.840Z,8.27
2023-04-05T17:37:52.887Z,7.05
2023-04-05T17:40:19.514Z,5.95
2023-04-05T17:42:45.997Z,6.68
2023-04-05T17:45:12.492Z,7.93
2023-04-05T17:47:39.114Z,7.43
2023-04-05T17:50:06.133Z,6.78
2023-04-05T17:52:32.700Z,6.63
2023-04-05T17:54:59.282Z,14.10
2023-04-05T17:57:25.925Z,6.10
2023-04-05T17:59:52.586Z,6.20
2023-04-05T18:02:19.163Z,7.28
2023-04-05T18:04:45.730Z,9.75
2023-04-05T18:07:12.290Z,7.10
2023-04-05T18:09:41.871Z,7.43
2023-04-05T18:12:09.114Z,7.80
2023-04-05T18:14:36.928Z,6.88
2023-04-05T18:17:09.573Z,8.05
2023-04-05T18:19:36.374Z,7.70
2023-04-05T18:22:02.945Z,8.70
2023-04-05T18:24:29.725Z,7.63
2023-04-05T18:26:56.260Z,7.43
2023-04-05T18:29:28.070Z,10.13
2023-04-05T18:31:56.106Z,10.93
2023-04-05T18:34:22.608Z,11.60
2023-04-05T18:36:49.161Z,14.93
2023-04-05T18:39:16.684Z,11.27
2023-04-05T18:41:43.439Z,12.18
2023-04-05T18:44:09.978Z,11.25
2023-04-05T18:46:36.631Z,11.87
2023-04-05T18:49:03.192Z,12.85
2023-04-05T18:51:29.685Z,12.25
2023-04-05T18:53:56.565Z,11.65
2023-04-05T18:56:23.430Z,11.52
2023-04-05T18:58:50.883Z,8.77
2023-04-05T19:01:18.870Z,9.57
2023-04-05T19:03:46.207Z,8.32
2023-04-05T19:06:13.918Z,8.82
2023-04-05T19:08:40.769Z,9.80
2023-04-05T19:11:07.785Z,14.17
2023-04-05T19:13:34.266Z,12.82
2023-04-05T19:16:00.837Z,12.73
2023-04-05T19:18:27.957Z,11.57
2023-04-05T19:20:56.613Z,10.80
2023-04-05T19:23:24.912Z,10.90
2023-04-05T19:25:51.430Z,11.63
2023-04-05T19:28:18.070Z,13.23
2023-04-05T19:30:46.011Z,10.70
2023-04-05T19:33:13.263Z,9.70
2023-04-05T19:35:40.104Z,9.57
2023-04-05T19:38:06.697Z,11.90
2023-04-05T19:40:33.215Z,8.65
2023-04-05T19:43:01.882Z,11.23
2023-04-05T19:45:30.344Z,10.15
2023-04-05T19:47:58.888Z,9.37
2023-04-05T19:50:39.712Z,10.57
2023-04-05T19:53:07.758Z,12.38
2023-04-05T19:55:36.646Z,10.40
2023-04-05T19:58:08.944Z,13.05
2023-04-05T20:00:40.577Z,11.50
2023-04-05T20:03:27.542Z,10.48
2023-04-05T20:06:04.529Z,14.40
2023-04-05T20:08:39.353Z,10.80
2023-04-05T20:11:08.425Z,11.40
2023-04-05T20:13:41.324Z,12.83
2023-04-05T20:16:09.361Z,13.75
2023-04-05T20:18:36.162Z,13.43
2023-04-05T20:21:02.714Z,11.48
2023-04-05T20:23:29.994Z,12.57
2023-04-05T20:25:56.533Z,11.60
2023-04-05T20:28:32.183Z,12.60
2023-04-05T20:30:58.755Z,12.43
2023-04-05T20:33:46.127Z,13.52
2023-04-05T20:36:13.175Z,10.60
2023-04-05T20:38:41.341Z,12.07
2023-04-05T20:41:09.285Z,12.63
2023-04-05T20:43:36.281Z,10.55
2023-04-05T20:46:04.047Z,12.23
2023-04-05T20:48:35.400Z,10.40
2023-04-05T20:51:03.414Z,11.67
2023-04-05T20:53:30.395Z,10.60
2023-04-05T20:55:57.229Z,14.00
2023-04-05T20:58:23.736Z,12.65
2023-04-05T21:00:50.607Z,10.27
2023-04-05T21:03:17.382Z,11.37
2023-04-05T21:05:43.985Z,14.68
2023-04-05T21:08:11.029Z,10.60
2023-04-05T21:10:37.802Z,10.55
2023-04-05T21:13:04.355Z,12.68
2023-04-05T21:15:35.150Z,11.83
2023-04-05T21:18:02.945Z,13.07
2023-04-05T21:20:29.524Z,13.50
2023-04-05T21:22:57.091Z,12.98
2023-04-05T21:25:24.058Z,11.10
2023-04-05T21:27:50.903Z,14.37
2023-04-05T21:30:18.091Z,13.55
2023-04-05T21:32:44.769Z,12.43
2023-04-05T21:35:11.406Z,12.93
2023-04-05T21:37:38.022Z,12.45
2023-04-05T21:40:04.850Z,13.63
2023-04-05T21:42:31.809Z,10.98
2023-04-05T21:44:58.569Z,13.25
2023-04-05T21:47:25.348Z,10.32
2023-04-05T21:49:52.811Z,12.60
2023-04-05T21:52:19.385Z,13.20
2023-04-05T21:54:46.276Z,12.18
2023-04-05T21:57:12.774Z,14.50
2023-04-05T21:59:39.333Z,12.77
2023-04-05T22:02:06.939Z,13.23
2023-04-05T22:04:34.851Z,13.27
2023-04-05T22:07:01.349Z,13.20
2023-04-05T22:09:31.655Z,13.88
2023-04-05T22:11:59.422Z,11.93
2023-04-05T22:14:26.456Z,12.52
2023-04-05T22:16:53.321Z,11.17
2023-04-05T22:19:20.456Z,14.32
2023-04-05T22:21:47.074Z,13.80
2023-04-05T22:24:14.309Z,12.48
2023-04-05T22:26:42.920Z,12.38
2023-04-05T22:29:09.576Z,12.23
2023-04-05T22:31:36.659Z,11.05
2023-04-05T22:34:03.310Z,11.87
2023-04-05T22:36:29.824Z,12.80
2023-04-05T22:38:56.319Z,11.65
2023-04-05T22:41:22.824Z,11.50
2023-04-05T22:43:49.333Z,11.13
2023-04-05T22:46:15.840Z,11.47
2023-04-05T22:48:42.644Z,11.95
2023-04-05T22:51:09.202Z,12.43
2023-04-05T22:53:35.719Z,11.23
2023-04-05T22:56:02.315Z,10.88
2023-04-05T22:58:32.494Z,10.60
2023-04-05T23:00:59.079Z,11.27
2023-04-05T23:03:26.128Z,12.38
2023-04-05T23:05:52.656Z,12.02
2023-04-05T23:08:19.207Z,10.50
2023-04-05T23:10:45.975Z,10.07
2023-04-05T23:13:12.483Z,11.80
2023-04-05T23:15:38.976Z,12.10
2023-04-05T23:18:05.670Z,12.07
2023-04-05T23:20:32.318Z,12.77
2023-04-05T23:22:58.834Z,10.70
2023-04-05T23:25:25.349Z,12.25
2023-04-05T23:27:53.732Z,11.93
2023-04-05T23:30:20.314Z,10.35
2023-04-05T23:32:46.983Z,15.43
2023-04-05T23:35:13.533Z,14.27
2023-04-05T23:37:40.353Z,11.90
2023-04-05T23:40:07.560Z,10.48
2023-04-05T23:42:34.085Z,10.35
2023-04-05T23:45:01.937Z,12.68
2023-04-05T23:47:28.422Z,10.80
2023-04-05T23:49:54.979Z,12.80
2023-04-05T23:52:21.944Z,13.57
2023-04-05T23:54:48.453Z,9.77
2023-04-05T23:57:14.911Z,13.25
2023-04-05T23:59:41.506Z,10.70
